Time;durP1;ratioP1;P1;durP2;ratioP2;P2;SDS_P1;SDS_P2;PMS_P1;PMS_P2;Temp;Humidity;BMP_temperature;BMP_pressure;BME280_temperature;BME280_humidity;BME280_pressure;Samples;Min_cycle;Max_cycle;Signal;HPM_P1;HPM_P2
2023/03/28 00:01:38;;;;;;;15.95;1.20;;;2.30;99.90;;;;;;4940196;29;20051;-87
2023/03/28 00:04:21;;;;;;;16.77;2.10;;;5.80;99.90;;;;;;4944894;29;20047;-86
2023/03/28 00:06:49;;;;;;;11.38;1.27;;;2.40;99.90;;;;;;4928963;29;20202;-86
2023/03/28 00:09:20;;;;;;;6.93;1.35;;;2.70;99.90;;;;;;4931357;29;20051;-86
2023/03/28 00:12:08;;;;;;;12.80;2.22;;;5.40;99.90;;;;;;4928436;29;20107;-87
2023/03/28 00:14:35;;;;;;;16.50;1.83;;;6.70;99.90;;;;;;4933997;29;20050;-86
2023/03/28 00:17:00;;;;;;;18.40;2.22;;;5.90;99.90;;;;;;4925324;29;20325;-85
2023/03/28 00:19:31;;;;;;;8.05;0.88;;;2.10;99.90;;;;;;4919160;29;20097;-88
2023/03/28 00:21:58;;;;;;;12.52;1.83;;;3.40;99.90;;;;;;4933997;29;20496;-85
2023/03/28 00:24:24;;;;;;;11.20;2.65;;;4.60;99.90;;;;;;4919093;29;20521;-85
2023/03/28 00:26:53;;;;;;;9.25;1.48;;;;;;;;;;4903313;29;20137;-85
2023/03/28 00:29:20;;;;;;;11.77;1.50;;;2.00;99.90;;;;;;4951383;29;20462;-86
2023/03/28 00:31:50;;;;;;;10.90;1.60;;;;;;;;;;4934904;29;20061;-85
2023/03/28 00:34:16;;;;;;;14.32;1.42;;;0.20;99.90;;;;;;4933249;29;20142;-85
2023/03/28 00:36:42;;;;;;;16.90;1.65;;;5.10;99.90;;;;;;4935402;29;20069;-86
2023/03/28 00:39:10;;;;;;;13.77;1.63;;;1.90;99.90;;;;;;4934133;29;20543;-85
2023/03/28 00:41:39;;;;;;;9.00;1.75;;;1.90;99.90;;;;;;4932970;29;20055;-85
2023/03/28 00:44:42;;;;;;;16.70;2.05;;;4.90;99.90;;;;;;4943451;29;20131;-87
2023/03/28 00:47:44;;;;;;;14.65;1.20;;;1.80;99.90;;;;;;4948466;29;20047;-89
2023/03/28 00:50:29;;;;;;;15.73;1.50;;;1.70;99.90;;;;;;4931262;29;20502;-88
2023/03/28 00:53:13;;;;;;;16.52;1.52;;;1.70;99.90;;;;;;4918142;29;20103;-87
2023/03/28 00:55:46;;;;;;;14.60;1.55;;;1.70;99.90;;;;;;4944466;29;20050;-85
2023/03/28 00:58:22;;;;;;;9.40;1.83;;;1.70;99.90;;;;;;4933665;29;20414;-87
2023/03/28 01:00:49;;;;;;;7.88;1.55;;;3.30;99.90;;;;;;4934437;29;20491;-86
2023/03/28 01:03:21;;;;;;;10.05;1.50;;;1.20;99.90;;;;;;4950674;29;20051;-86
2023/03/28 01:05:47;;;;;;;8.23;1.60;;;;;;;;;;4920368;29;20051;-87
2023/03/28 01:08:25;;;;;;;14.50;1.73;;;1.60;99.90;;;;;;4922739;29;20052;-88
2023/03/28 01:10:51;;;;;;;13.80;1.75;;;;;;;;;;4918668;29;20503;-86
2023/03/28 01:13:25;;;;;;;12.75;2.08;;;1.50;99.90;;;;;;4950596;29;20102;-88
2023/03/28 01:15:51;;;;;;;7.97;1.27;;;1.30;99.90;;;;;;4918211;29;20152;-87
2023/03/28 01:18:21;;;;;;;13.80;1.50;;;1.40;99.90;;;;;;4932535;29;20063;-89
2023/03/28 01:21:20;;;;;;;13.60;1.58;;;3.10;99.90;;;;;;4935526;29;20057;-88
2023/03/28 01:24:17;;;;;;;10.13;1.50;;;1.40;99.90;;;;;;4927832;29;20069;-88
2023/03/28 01:27:03;;;;;;;13.85;1.48;;;3.60;99.90;;;;;;4911675;29;20078;-89
2023/03/28 01:29:59;;;;;;;11.20;2.28;;;1.50;99.90;;;;;;4951230;29;20158;-88
2023/03/28 01:32:46;;;;;;;20.20;2.42;;;1.40;99.90;;;;;;4917290;29;20627;-87
2023/03/28 01:35:58;;;;;;;14.00;1.70;;;1.50;99.90;;;;;;4948927;29;20102;-87
2023/03/28 01:38:40;;;;;;;24.98;2.55;;;1.40;99.90;;;;;;4943025;29;20067;-87
2023/03/28 01:41:14;;;;;;;16.67;1.95;;;1.40;99.90;;;;;;4913696;29;20087;-87
2023/03/28 01:43:52;;;;;;;12.57;1.85;;;1.20;99.90;;;;;;4926979;29;20129;-87
2023/03/28 01:46:38;;;;;;;16.45;2.15;;;1.30;99.90;;;;;;4917121;29;20054;-88
2023/03/28 01:49:32;;;;;;;12.05;1.38;;;1.40;99.90;;;;;;4917439;29;20055;-85
2023/03/28 01:52:11;;;;;;;11.93;2.03;;;1.40;99.90;;;;;;4929871;29;20047;-88
2023/03/28 01:54:48;;;;;;;10.98;1.35;;;1.20;99.90;;;;;;4927369;29;20046;-85
2023/03/28 01:57:30;;;;;;;11.48;2.03;;;1.30;99.90;;;;;;4933062;29;20047;-87
2023/03/28 02:00:18;;;;;;;12.02;2.80;;;1.50;99.90;;;;;;4912597;29;20063;-87
2023/03/28 02:03:05;;;;;;;12.32;2.47;;;1.30;99.90;;;;;;4915295;28;20047;-89
2023/03/28 02:05:33;;;;;;;10.55;1.70;;;1.30;99.90;;;;;;4922656;28;20070;-89
2023/03/28 02:08:04;;;;;;;21.17;1.85;;;1.30;99.90;;;;;;4938044;29;20054;-89
2023/03/28 02:10:31;;;;;;;19.35;2.05;;;0.90;99.90;;;;;;4935415;29;20051;-88
2023/03/28 02:13:06;;;;;;;19.58;2.33;;;1.30;99.90;;;;;;4943253;29;20075;-86
2023/03/28 02:15:32;;;;;;;10.75;1.75;;;1.10;99.90;;;;;;4936665;29;20047;-89
2023/03/28 02:18:15;;;;;;;10.85;2.15;;;1.30;99.90;;;;;;4924212;28;20491;-88
2023/03/28 02:20:43;;;;;;;14.40;2.33;;;5.50;99.90;;;;;;4954470;29;20507;-87
2023/03/28 02:23:25;;;;;;;14.40;1.80;;;4.00;99.90;;;;;;4961128;28;20047;-85
2023/03/28 02:25:51;;;;;;;16.23;2.15;;;4.50;99.90;;;;;;4938462;29;20043;-87
2023/03/28 02:28:18;;;;;;;18.65;1.58;;;4.30;99.90;;;;;;4924061;29;20058;-87
2023/03/28 02:30:44;;;;;;;17.08;2.47;;;1.10;99.90;;;;;;4939995;29;20121;-88
2023/03/28 02:33:39;;;;;;;24.23;3.72;;;1.20;99.90;;;;;;4939028;29;20587;-88
2023/03/28 02:36:20;;;;;;;9.30;1.40;;;1.30;99.90;;;;;;4919659;29;20559;-86
2023/03/28 02:39:10;;;;;;;13.38;2.08;;;-1.00;99.90;;;;;;4934488;29;20058;-88
2023/03/28 02:41:54;;;;;;;12.10;1.63;;;-0.60;99.90;;;;;;4948992;29;20059;-86
2023/03/28 02:44:33;;;;;;;9.43;1.50;;;0.50;99.90;;;;;;4939148;29;20399;-86
2023/03/28 02:47:15;;;;;;;14.27;2.60;;;4.20;99.90;;;;;;4923848;29;20047;-88
2023/03/28 02:50:20;;;;;;;16.10;2.47;;;1.40;99.90;;;;;;4931963;29;20075;-89
2023/03/28 02:53:09;;;;;;;14.65;2.03;;;1.20;99.90;;;;;;4950305;29;20550;-87
2023/03/28 02:55:59;;;;;;;11.23;1.58;;;1.20;99.90;;;;;;4923191;29;20080;-88
2023/03/28 02:58:30;;;;;;;21.13;2.50;;;3.60;99.90;;;;;;4938722;29;20114;-87
2023/03/28 03:00:56;;;;;;;9.90;1.67;;;;;;;;;;4923134;29;20086;-88
2023/03/28 03:03:22;;;;;;;10.65;1.85;;;1.10;99.90;;;;;;4938737;29;20047;-88
2023/03/28 03:05:48;;;;;;;10.25;1.77;;;1.20;99.90;;;;;;4907738;29;20055;-86
2023/03/28 03:08:14;;;;;;;11.98;1.65;;;0.80;99.90;;;;;;4937860;29;20055;-87
2023/03/28 03:10:40;;;;;;;16.92;3.83;;;4.80;99.90;;;;;;4938946;29;20566;-86
2023/03/28 03:13:11;;;;;;;12.43;1.67;;;;;;;;;;4955726;29;20106;-88
2023/03/28 03:15:37;;;;;;;10.10;1.65;;;1.10;99.90;;;;;;4928196;29;20059;-88
2023/03/28 03:18:05;;;;;;;20.52;2.72;;;1.00;99.90;;;;;;4937111;29;20043;-88
2023/03/28 03:20:32;;;;;;;16.20;2.05;;;;;;;;;;4953506;29;20058;-88
2023/03/28 03:22:59;;;;;;;7.68;1.80;;;1.10;99.90;;;;;;4935267;29;20432;-88
2023/03/28 03:25:27;;;;;;;11.30;1.50;;;1.60;99.90;;;;;;4920072;29;20051;-87
2023/03/28 03:27:52;;;;;;;11.43;1.65;;;1.60;99.90;;;;;;4920348;29;20039;-86
2023/03/28 03:30:18;;;;;;;12.77;1.90;;;0.90;99.90;;;;;;4919000;29;20044;-86
2023/03/28 03:32:44;;;;;;;11.45;1.95;;;4.80;99.90;;;;;;4920782;29;20403;-87
2023/03/28 03:35:10;;;;;;;8.75;2.45;;;1.20;99.90;;;;;;4936014;29;20464;-87
2023/03/28 03:37:36;;;;;;;17.05;2.33;;;0.60;99.90;;;;;;4941544;29;20043;-86
2023/03/28 03:40:04;;;;;;;11.10;1.60;;;0.80;99.90;;;;;;4936919;29;20047;-87
2023/03/28 03:42:30;;;;;;;18.73;2.20;;;1.00;99.90;;;;;;4936228;29;20059;-87
2023/03/28 03:44:56;;;;;;;12.13;1.85;;;3.40;99.90;;;;;;4952425;29;20066;-85
2023/03/28 03:47:22;;;;;;;8.48;1.77;;;3.30;99.90;;;;;;4935622;29;20173;-89
2023/03/28 03:49:48;;;;;;;16.23;1.92;;;;;;;;;;4919975;29;20063;-88
2023/03/28 03:52:13;;;;;;;12.00;2.72;;;1.00;99.90;;;;;;4918667;29;20416;-85
2023/03/28 03:54:40;;;;;;;15.43;1.90;;;2.70;99.90;;;;;;4937733;29;20102;-87
2023/03/28 03:57:07;;;;;;;6.72;1.05;;;;;;;;;;4951199;29;20586;-84
2023/03/28 03:59:32;;;;;;;10.57;1.70;;;1.00;99.90;;;;;;4918909;29;20043;-88
2023/03/28 04:01:59;;;;;;;12.50;1.70;;;0.90;99.90;;;;;;4935359;29;20407;-86
2023/03/28 04:04:27;;;;;;;14.07;2.78;;;1.00;99.90;;;;;;4919513;29;20055;-88
2023/03/28 04:06:59;;;;;;;9.02;1.42;;;0.80;99.90;;;;;;4932737;29;20051;-87
2023/03/28 04:09:28;;;;;;;10.48;1.90;;;0.90;99.90;;;;;;4935039;29;20482;-87
2023/03/28 04:11:54;;;;;;;9.00;1.15;;;1.00;99.90;;;;;;4933977;29;20066;-85
2023/03/28 04:14:20;;;;;;;12.45;2.47;;;0.70;99.90;;;;;;4932779;29;20193;-87
2023/03/28 04:17:12;;;;;;;10.20;1.40;;;3.30;99.90;;;;;;4934534;29;20487;-87
2023/03/28 04:19:38;;;;;;;8.50;1.30;;;0.80;99.90;;;;;;4931489;29;20058;-87
2023/03/28 04:22:11;;;;;;;10.48;1.48;;;0.70;99.90;;;;;;4915179;29;20055;-87
2023/03/28 04:24:40;;;;;;;12.15;1.50;;;0.40;99.90;;;;;;4920048;29;20102;-89
2023/03/28 04:27:08;;;;;;;19.20;1.48;;;3.50;99.90;;;;;;4917999;29;20058;-88
2023/03/28 04:29:38;;;;;;;13.48;1.23;;;0.80;99.90;;;;;;4965373;29;20087;-86
2023/03/28 04:32:05;;;;;;;12.70;1.77;;;0.70;99.90;;;;;;4946842;29;20047;-85
2023/03/28 04:34:32;;;;;;;6.78;1.20;;;0.80;99.90;;;;;;4933345;29;20055;-87
2023/03/28 04:37:00;;;;;;;13.10;1.35;;;4.70;99.90;;;;;;4959349;29;20114;-89
2023/03/28 04:39:30;;;;;;;8.05;0.95;;;0.60;99.90;;;;;;4920405;29;20496;-85
2023/03/28 04:42:00;;;;;;;11.38;1.35;;;0.70;99.90;;;;;;4918931;29;20055;-87
2023/03/28 04:44:28;;;;;;;12.25;1.60;;;0.70;99.90;;;;;;4935007;29;20062;-87
2023/03/28 04:46:55;;;;;;;9.88;1.52;;;0.90;99.90;;;;;;4934608;29;20122;-86
2023/03/28 04:49:26;;;;;;;8.38;2.22;;;2.30;99.90;;;;;;4934228;29;20086;-86
2023/03/28 04:51:51;;;;;;;9.48;1.52;;;0.90;99.90;;;;;;4918996;29;20511;-90
2023/03/28 04:54:19;;;;;;;10.45;1.70;;;3.40;99.90;;;;;;4933491;29;20058;-85
2023/03/28 04:56:48;;;;;;;11.05;1.83;;;0.90;99.90;;;;;;4952039;29;20459;-89
2023/03/28 04:59:18;;;;;;;13.57;1.58;;;0.80;99.90;;;;;;4917644;29;20058;-84
2023/03/28 05:01:48;;;;;;;8.35;1.30;;;3.80;99.90;;;;;;4918671;29;20062;-88
2023/03/28 05:04:19;;;;;;;11.60;1.90;;;0.80;99.90;;;;;;4918291;29;20122;-88
2023/03/28 05:06:48;;;;;;;13.18;1.70;;;4.10;99.90;;;;;;4895185;29;20047;-88
2023/03/28 05:09:16;;;;;;;11.73;2.13;;;0.60;99.90;;;;;;4949793;29;20058;-88
2023/03/28 05:11:43;;;;;;;11.98;1.58;;;3.40;99.90;;;;;;4919837;29;20078;-87
2023/03/28 05:14:09;;;;;;;10.60;1.65;;;4.10;99.90;;;;;;4903865;29;20090;-88
2023/03/28 05:16:39;;;;;;;10.80;1.35;;;0.80;99.90;;;;;;4934153;29;20054;-88
2023/03/28 05:19:05;;;;;;;8.90;1.48;;;0.70;99.90;;;;;;4902047;29;20043;-86
2023/03/28 05:21:34;;;;;;;10.48;1.45;;;-0.70;99.90;;;;;;4920811;29;20044;-87
2023/03/28 05:23:59;;;;;;;16.60;2.08;;;0.80;99.90;;;;;;4920918;29;20085;-86
2023/03/28 05:26:26;;;;;;;13.65;2.20;;;2.50;99.90;;;;;;4917001;29;20527;-86
2023/03/28 05:28:53;;;;;;;9.10;1.98;;;1.60;99.90;;;;;;4918754;29;20051;-83
2023/03/28 05:31:18;;;;;;;10.65;2.28;;;0.80;99.90;;;;;;4901814;29;20051;-83
2023/03/28 05:33:46;;;;;;;10.25;2.22;;;0.90;99.90;;;;;;4933807;29;20059;-84
2023/03/28 05:36:11;;;;;;;11.57;1.67;;;1.10;99.90;;;;;;4914482;29;20594;-84
2023/03/28 05:38:37;;;;;;;11.90;1.98;;;0.60;99.90;;;;;;4956360;28;20087;-84
2023/03/28 05:41:03;;;;;;;11.82;1.70;;;2.00;99.90;;;;;;4916922;29;20050;-84
2023/03/28 05:43:29;;;;;;;14.38;1.63;;;1.60;99.90;;;;;;4917300;29;20525;-84
2023/03/28 05:45:55;;;;;;;11.13;2.28;;;1.10;99.90;;;;;;4917436;29;20110;-85
2023/03/28 05:48:20;;;;;;;11.93;1.92;;;1.60;99.90;;;;;;4916744;29;20451;-84
2023/03/28 05:50:49;;;;;;;13.82;2.42;;;1.10;99.90;;;;;;4917352;29;20047;-84
2023/03/28 05:53:15;;;;;;;9.77;1.55;;;2.70;99.90;;;;;;4931904;29;20655;-84
2023/03/28 05:55:41;;;;;;;11.90;2.38;;;3.90;99.90;;;;;;4913650;29;20147;-84
2023/03/28 05:58:07;;;;;;;11.63;1.75;;;1.20;99.90;;;;;;4915676;29;20483;-84
2023/03/28 06:00:33;;;;;;;10.02;2.15;;;1.00;99.90;;;;;;4932791;29;20047;-85
2023/03/28 06:02:59;;;;;;;9.68;1.38;;;4.20;99.90;;;;;;4933160;29;20059;-84
2023/03/28 06:05:26;;;;;;;10.50;1.58;;;4.20;99.90;;;;;;4932101;29;20051;-86
2023/03/28 06:07:52;;;;;;;13.45;1.25;;;1.20;99.90;;;;;;4932835;29;20578;-84
2023/03/28 06:10:18;;;;;;;15.60;1.88;;;2.10;99.90;;;;;;4917424;29;20557;-84
2023/03/28 06:12:44;;;;;;;11.43;2.13;;;1.30;99.90;;;;;;4935602;28;20047;-84
2023/03/28 06:15:11;;;;;;;15.85;1.67;;;1.40;99.90;;;;;;4953899;28;20062;-87
2023/03/28 06:17:37;;;;;;;16.27;2.05;;;1.00;99.90;;;;;;4932610;29;20119;-85
2023/03/28 06:20:08;;;;;;;10.93;1.95;;;1.30;99.90;;;;;;4916452;29;20059;-84
2023/03/28 06:22:35;;;;;;;7.78;2.03;;;2.10;99.90;;;;;;4916816;29;20166;-85
2023/03/28 06:25:01;;;;;;;15.02;1.60;;;1.30;99.90;;;;;;4948900;29;20075;-86
2023/03/28 06:27:27;;;;;;;10.27;3.45;;;2.90;99.90;;;;;;4931827;29;20560;-85
2023/03/28 06:29:53;;;;;;;12.88;2.72;;;1.50;99.90;;;;;;4588478;29;10000078;-85
2023/03/28 06:32:19;;;;;;;15.23;2.67;;;;;;;;;;4931091;29;20127;-85
2023/03/28 06:34:44;;;;;;;11.73;2.50;;;1.80;99.90;;;;;;4913488;29;20110;-86
2023/03/28 06:37:10;;;;;;;17.27;2.25;;;;;;;;;;4910628;29;20055;-88
2023/03/28 06:39:36;;;;;;;16.25;2.47;;;;;;;;;;4927534;29;20062;-89
2023/03/28 06:42:02;;;;;;;20.75;2.40;;;1.90;99.90;;;;;;4928507;29;21379;-86
2023/03/28 06:44:29;;;;;;;13.38;1.90;;;1.90;99.90;;;;;;4913357;29;20086;-85
2023/03/28 06:46:55;;;;;;;20.42;3.10;;;1.70;99.90;;;;;;4930891;29;20047;-86
2023/03/28 06:49:21;;;;;;;16.40;2.30;;;1.70;99.90;;;;;;4931025;29;20125;-88
2023/03/28 06:51:47;;;;;;;17.20;2.17;;;1.50;99.90;;;;;;4933554;29;20047;-87
2023/03/28 06:54:14;;;;;;;11.75;2.53;;;1.70;99.90;;;;;;4919951;29;20504;-86
2023/03/28 06:56:39;;;;;;;12.75;2.22;;;1.90;99.90;;;;;;4919547;29;20086;-87
2023/03/28 06:59:07;;;;;;;15.75;2.85;;;5.40;99.90;;;;;;4918452;29;20051;-88
2023/03/28 07:01:33;;;;;;;12.43;2.20;;;1.90;99.90;;;;;;4920019;29;20518;-88
2023/03/28 07:04:00;;;;;;;13.18;2.63;;;2.20;99.90;;;;;;4934568;29;20055;-86
2023/03/28 07:06:27;;;;;;;9.45;2.00;;;;;;;;;;4941107;29;20126;-85
2023/03/28 07:08:53;;;;;;;12.50;2.72;;;1.90;99.90;;;;;;4923744;29;20055;-85
2023/03/28 07:11:19;;;;;;;8.95;1.98;;;2.70;99.90;;;;;;4916528;29;20419;-86
2023/03/28 07:13:44;;;;;;;12.63;2.65;;;5.40;99.90;;;;;;4936223;29;20043;-86
2023/03/28 07:16:14;;;;;;;15.98;2.08;;;2.00;99.90;;;;;;4931137;29;20051;-85
2023/03/28 07:18:40;;;;;;;8.88;2.08;;;2.10;99.90;;;;;;4932395;29;20089;-82
2023/03/28 07:21:11;;;;;;;12.60;1.95;;;2.10;99.90;;;;;;4933970;29;20075;-82
2023/03/28 07:23:40;;;;;;;7.13;2.05;;;2.10;99.90;;;;;;4952360;29;20055;-82
2023/03/28 07:26:09;;;;;;;8.82;1.80;;;5.20;99.90;;;;;;4935284;29;20047;-82
2023/03/28 07:28:35;;;;;;;7.72;1.88;;;2.30;99.90;;;;;;4903968;29;20059;-82
2023/03/28 07:31:06;;;;;;;10.85;2.03;;;5.10;99.90;;;;;;4918789;29;20091;-82
2023/03/28 07:33:36;;;;;;;8.50;1.33;;;2.70;99.90;;;;;;4920152;29;20133;-82
2023/03/28 07:36:28;;;;;;;9.93;1.50;;;2.80;99.90;;;;;;4932077;29;20376;-82
2023/03/28 07:38:54;;;;;;;6.68;1.67;;;5.00;99.90;;;;;;4925393;29;20047;-82
2023/03/28 07:41:23;;;;;;;12.55;2.08;;;3.10;99.90;;;;;;4918771;29;20486;-82
2023/03/28 07:43:49;;;;;;;11.73;2.63;;;3.10;99.90;;;;;;4953067;29;20043;-83
2023/03/28 07:46:14;;;;;;;8.13;1.05;;;3.30;99.90;;;;;;4919264;29;20080;-83
2023/03/28 07:48:41;;;;;;;15.68;1.92;;;3.40;99.90;;;;;;4951718;29;20130;-83
2023/03/28 07:51:08;;;;;;;11.75;1.67;;;5.30;99.90;;;;;;4919170;29;20051;-82
2023/03/28 07:53:37;;;;;;;13.18;1.05;;;3.70;99.90;;;;;;4919727;29;20424;-83
2023/03/28 07:56:05;;;;;;;9.55;1.88;;;3.90;99.90;;;;;;4934394;29;20432;-82
2023/03/28 07:58:30;;;;;;;10.90;1.27;;;4.10;99.90;;;;;;4918883;29;20058;-82
2023/03/28 08:01:03;;;;;;;10.13;1.35;;;4.50;99.90;;;;;;4918880;29;20047;-83
2023/03/28 08:03:29;;;;;;;9.75;1.40;;;4.20;99.90;;;;;;4918763;29;20138;-82
2023/03/28 08:05:55;;;;;;;6.40;1.10;;;7.70;99.90;;;;;;4935183;29;20476;-82
2023/03/28 08:08:21;;;;;;;7.20;1.42;;;5.10;99.90;;;;;;4918812;29;20551;-82
2023/03/28 08:10:49;;;;;;;5.10;0.60;;;7.20;99.90;;;;;;4934515;29;20043;-82
2023/03/28 08:13:23;;;;;;;5.50;0.90;;;4.40;99.90;;;;;;4918678;29;20055;-82
2023/03/28 08:15:50;;;;;;;7.57;1.20;;;4.70;99.90;;;;;;4927707;29;20054;-82
2023/03/28 08:18:20;;;;;;;8.30;1.77;;;4.60;99.90;;;;;;4918783;29;20361;-82
2023/03/28 08:20:58;;;;;;;5.35;1.38;;;7.30;99.90;;;;;;4927320;29;20051;-82
2023/03/28 08:23:25;;;;;;;8.70;1.42;;;4.70;99.90;;;;;;4918019;29;20063;-83
2023/03/28 08:25:51;;;;;;;13.73;2.13;;;5.60;99.90;;;;;;4918881;29;20442;-83
2023/03/28 08:28:21;;;;;;;4.30;0.90;;;5.20;99.90;;;;;;4934799;29;20530;-82
2023/03/28 08:30:46;;;;;;;6.25;0.77;;;4.50;99.90;;;;;;4902688;29;20039;-82
2023/03/28 08:33:20;;;;;;;7.43;0.80;;;4.40;99.90;;;;;;4918347;29;20138;-81
2023/03/28 08:35:54;;;;;;;3.75;0.77;;;8.20;99.90;;;;;;4899362;29;20135;-82
2023/03/28 08:38:23;;;;;;;4.20;0.93;;;6.20;99.90;;;;;;4933840;29;20109;-82
2023/03/28 08:41:18;;;;;;;12.55;1.00;;;4.70;99.90;;;;;;4934565;29;20086;-82
2023/03/28 08:43:57;;;;;;;8.95;1.55;;;4.70;99.90;;;;;;4889991;29;20436;-84
2023/03/28 08:46:28;;;;;;;6.15;1.17;;;4.70;99.90;;;;;;4950686;29;20047;-84
2023/03/28 08:48:55;;;;;;;4.00;0.90;;;4.70;99.90;;;;;;4921015;29;20109;-81
2023/03/28 08:51:25;;;;;;;4.43;0.93;;;4.60;99.90;;;;;;4918715;29;20059;-82
2023/03/28 08:54:07;;;;;;;5.65;1.05;;;4.80;99.90;;;;;;4934574;29;20047;-82
2023/03/28 08:56:38;;;;;;;7.75;1.35;;;6.50;99.90;;;;;;4918521;29;20061;-82
2023/03/28 08:59:12;;;;;;;6.35;0.85;;;4.90;99.90;;;;;;4950148;29;20074;-82
2023/03/28 09:01:38;;;;;;;5.38;1.10;;;3.60;99.90;;;;;;4951361;29;20101;-83
2023/03/28 09:04:04;;;;;;;6.57;0.82;;;5.00;99.90;;;;;;4950637;29;20053;-82
2023/03/28 09:06:40;;;;;;;6.97;0.88;;;5.10;99.90;;;;;;4933358;29;20137;-82
2023/03/28 09:09:11;;;;;;;7.70;0.90;;;5.30;99.90;;;;;;4950257;29;20043;-82
2023/03/28 09:11:53;;;;;;;5.35;1.70;;;5.40;99.90;;;;;;4950966;29;20126;-82
2023/03/28 09:14:47;;;;;;;3.13;0.70;;;5.50;99.90;;;;;;4949557;28;20055;-82
2023/03/28 09:17:24;;;;;;;4.28;1.25;;;5.60;99.90;;;;;;4917402;29;20055;-83
2023/03/28 09:20:21;;;;;;;8.18;0.93;;;5.70;99.90;;;;;;4910232;29;20059;-82
2023/03/28 09:23:02;;;;;;;4.28;0.57;;;5.90;99.90;;;;;;4926224;29;20059;-83
2023/03/28 09:25:31;;;;;;;5.80;0.93;;;6.00;99.90;;;;;;4917631;29;20055;-83
2023/03/28 09:28:27;;;;;;;3.75;0.20;;;7.30;99.90;;;;;;4932456;29;20055;-82
2023/03/28 09:30:56;;;;;;;5.15;0.50;;;6.10;99.90;;;;;;4927410;29;20110;-83
2023/03/28 09:33:36;;;;;;;5.00;1.02;;;6.00;99.90;;;;;;4933259;29;20051;-83
2023/03/28 09:36:09;;;;;;;8.68;0.60;;;6.10;99.90;;;;;;4933101;29;20059;-83
2023/03/28 09:38:39;;;;;;;2.50;0.50;;;6.00;99.90;;;;;;4933381;29;20134;-83
2023/03/28 09:41:15;;;;;;;3.33;0.80;;;6.00;99.90;;;;;;4949491;29;20047;-83
2023/03/28 09:43:56;;;;;;;2.08;0.60;;;6.00;99.90;;;;;;4950738;29;20565;-83
2023/03/28 09:46:22;;;;;;;4.45;0.70;;;5.90;99.90;;;;;;4950088;29;20054;-83
2023/03/28 09:48:49;;;;;;;6.53;0.45;;;5.50;99.90;;;;;;4925003;29;20070;-83
2023/03/28 09:51:17;;;;;;;5.60;1.08;;;6.20;99.90;;;;;;4932686;29;20058;-83
2023/03/28 09:53:44;;;;;;;5.90;1.52;;;6.60;99.90;;;;;;4917546;29;20430;-83
2023/03/28 09:56:34;;;;;;;8.65;0.85;;;6.20;99.90;;;;;;4949314;29;20134;-83
2023/03/28 09:59:02;;;;;;;6.40;0.93;;;6.30;99.90;;;;;;4895457;29;20058;-83
2023/03/28 10:01:45;;;;;;;2.30;0.47;;;5.80;99.90;;;;;;4917192;29;20167;-83
2023/03/28 10:04:17;;;;;;;1.93;0.50;;;8.40;99.90;;;;;;4949754;29;20425;-83
2023/03/28 10:06:43;;;;;;;2.63;0.80;;;6.30;99.90;;;;;;4916997;29;20059;-83
2023/03/28 10:09:22;;;;;;;2.92;1.20;;;6.10;99.90;;;;;;4916070;29;20047;-83
2023/03/28 10:11:55;;;;;;;5.63;0.68;;;6.30;99.90;;;;;;4950597;29;20048;-83
2023/03/28 10:14:27;;;;;;;4.40;0.70;;;6.00;99.90;;;;;;4917255;29;20058;-82
2023/03/28 10:17:00;;;;;;;3.42;0.65;;;9.10;99.90;;;;;;4942580;29;20086;-83
2023/03/28 10:19:32;;;;;;;6.70;0.60;;;6.00;99.90;;;;;;4901035;29;20058;-83
2023/03/28 10:22:14;;;;;;;5.80;0.80;;;7.70;99.90;;;;;;4933092;29;20051;-82
2023/03/28 10:24:40;;;;;;;4.65;0.82;;;6.70;99.90;;;;;;4918009;29;20098;-83
2023/03/28 10:27:22;;;;;;;6.50;0.70;;;6.20;99.90;;;;;;4937543;29;20047;-82
2023/03/28 10:29:51;;;;;;;4.95;0.90;;;6.10;99.90;;;;;;4937523;29;20039;-83
2023/03/28 10:32:29;;;;;;;7.40;1.27;;;7.20;99.90;;;;;;4936498;29;20521;-83
2023/03/28 10:35:23;;;;;;;3.90;0.95;;;6.20;99.90;;;;;;4905051;29;20046;-83
2023/03/28 10:37:55;;;;;;;6.78;1.38;;;6.20;99.90;;;;;;4921007;29;20106;-83
2023/03/28 10:40:25;;;;;;;4.03;1.08;;;6.20;99.90;;;;;;4936306;29;20133;-84
2023/03/28 10:42:54;;;;;;;4.88;1.60;;;6.20;99.90;;;;;;4936832;29;20400;-83
2023/03/28 10:45:45;;;;;;;7.95;0.90;;;8.60;99.90;;;;;;4920272;29;20126;-83
2023/03/28 10:48:32;;;;;;;9.10;1.33;;;9.30;99.90;;;;;;4908143;29;20094;-83
2023/03/28 10:51:07;;;;;;;3.13;1.30;;;6.30;99.90;;;;;;4925931;29;20066;-83
2023/03/28 10:54:04;;;;;;;7.13;1.30;;;9.20;99.90;;;;;;4936381;29;20051;-83
2023/03/28 10:56:40;;;;;;;9.25;1.63;;;6.30;99.90;;;;;;4936198;29;20688;-83
2023/03/28 10:59:45;;;;;;;6.22;1.02;;;6.30;99.90;;;;;;4919543;29;20085;-83
2023/03/28 11:02:45;;;;;;;3.85;0.95;;;6.40;99.90;;;;;;4931331;29;20090;-83
2023/03/28 11:05:27;;;;;;;3.97;1.48;;;6.50;99.90;;;;;;4930451;29;20055;-83
2023/03/28 11:08:24;;;;;;;5.93;1.33;;;8.00;99.90;;;;;;4945444;28;20047;-83
2023/03/28 11:11:13;;;;;;;4.60;1.23;;;6.40;99.90;;;;;;4946075;29;20047;-83
2023/03/28 11:13:52;;;;;;;8.95;1.58;;;6.60;99.90;;;;;;4935540;29;20662;-83
2023/03/28 11:16:43;;;;;;;3.85;1.60;;;6.70;99.90;;;;;;4952759;29;20057;-83
2023/03/28 11:19:27;;;;;;;4.00;1.25;;;6.70;99.90;;;;;;4929865;29;20055;-83
2023/03/28 11:22:11;;;;;;;3.60;1.55;;;6.90;99.90;;;;;;4928508;29;20078;-83
2023/03/28 11:24:56;;;;;;;2.63;1.42;;;6.80;99.90;;;;;;4935923;29;20062;-83
2023/03/28 11:27:32;;;;;;;6.05;1.27;;;7.00;99.90;;;;;;4934943;29;20051;-83
2023/03/28 11:30:23;;;;;;;3.83;1.40;;;7.20;99.90;;;;;;4929317;29;20096;-82
2023/03/28 11:33:09;;;;;;;3.47;1.20;;;7.20;99.90;;;;;;4953238;29;20051;-83
2023/03/28 11:35:46;;;;;;;4.07;1.30;;;7.30;99.90;;;;;;4952506;28;20066;-83
2023/03/28 11:38:26;;;;;;;3.78;1.05;;;7.40;99.90;;;;;;4934999;29;20479;-83
2023/03/28 11:40:55;;;;;;;3.63;1.20;;;7.40;99.90;;;;;;4927649;29;20075;-83
2023/03/28 11:43:36;;;;;;;4.60;1.73;;;7.50;99.90;;;;;;4919519;29;20484;-83
2023/03/28 11:46:27;;;;;;;5.45;1.73;;;7.60;99.90;;;;;;4910105;29;20102;-83
2023/03/28 11:49:04;;;;;;;3.97;0.90;;;7.50;99.90;;;;;;4908693;29;20047;-83
2023/03/28 11:52:00;;;;;;;4.10;1.38;;;6.10;99.90;;;;;;4952952;29;20051;-83
2023/03/28 11:54:48;;;;;;;5.20;1.38;;;8.40;99.90;;;;;;4950896;29;20058;-84
2023/03/28 11:57:23;;;;;;;8.07;1.85;;;7.80;99.90;;;;;;4934661;29;20107;-83
2023/03/28 12:00:05;;;;;;;3.63;1.15;;;9.90;99.90;;;;;;4952664;29;20079;-84
2023/03/28 12:02:41;;;;;;;4.38;1.75;;;7.90;99.90;;;;;;4935061;29;20059;-84
2023/03/28 12:05:25;;;;;;;3.33;1.20;;;10.80;99.90;;;;;;4918786;29;20050;-82
2023/03/28 12:08:03;;;;;;;5.78;1.88;;;7.70;99.90;;;;;;4927131;29;20130;-83
2023/03/28 12:10:35;;;;;;;4.72;1.63;;;8.00;99.90;;;;;;4951915;29;20408;-84
2023/03/28 12:13:18;;;;;;;6.28;1.30;;;10.80;99.90;;;;;;4952028;29;20094;-84
2023/03/28 12:15:51;;;;;;;6.55;1.45;;;8.00;99.90;;;;;;4951421;29;20059;-84
2023/03/28 12:18:56;;;;;;;6.00;1.40;;;7.90;99.90;;;;;;4951379;29;20066;-82
2023/03/28 12:21:51;;;;;;;6.53;1.80;;;9.80;99.90;;;;;;4915512;29;20086;-82
2023/03/28 12:24:35;;;;;;;5.47;1.55;;;7.90;99.90;;;;;;4938639;29;20047;-82
2023/03/28 12:27:06;;;;;;;6.55;2.63;;;8.90;99.90;;;;;;4951460;29;20047;-82
2023/03/28 12:29:39;;;;;;;4.50;1.63;;;8.10;99.90;;;;;;4951485;29;20079;-82
2023/03/28 12:32:23;;;;;;;5.18;1.33;;;10.70;99.90;;;;;;4934311;29;20042;-82
2023/03/28 12:35:18;;;;;;;5.70;1.85;;;8.50;99.90;;;;;;4919133;29;20075;-82
2023/03/28 12:38:08;;;;;;;4.13;1.50;;;8.50;99.90;;;;;;4917546;29;20491;-82
2023/03/28 12:40:34;;;;;;;7.45;1.50;;;8.30;99.90;;;;;;4918587;29;20256;-83
2023/03/28 12:43:00;;;;;;;3.70;1.15;;;8.30;99.90;;;;;;4951413;29;20170;-82
2023/03/28 12:45:39;;;;;;;9.68;1.50;;;8.30;99.90;;;;;;4918030;29;20098;-82
2023/03/28 12:48:14;;;;;;;7.22;1.65;;;8.30;99.90;;;;;;4927495;29;20054;-83
2023/03/28 12:50:51;;;;;;;4.03;1.20;;;8.30;99.90;;;;;;4951330;29;20067;-83
2023/03/28 12:53:17;;;;;;;3.33;1.48;;;8.60;99.90;;;;;;4933682;29;20134;-83
2023/03/28 12:55:46;;;;;;;5.00;1.67;;;8.70;99.90;;;;;;4918271;29;20139;-83
2023/03/28 12:58:29;;;;;;;6.65;1.70;;;8.80;99.90;;;;;;4949731;29;20045;-83
2023/03/28 13:01:07;;;;;;;2.28;1.40;;;8.80;99.90;;;;;;4926146;29;20062;-83
2023/03/28 13:03:51;;;;;;;5.47;1.73;;;8.60;99.90;;;;;;4916310;29;20048;-82
2023/03/28 13:06:45;;;;;;;5.93;1.80;;;8.60;99.90;;;;;;4932773;29;20062;-83
2023/03/28 13:09:37;;;;;;;5.97;1.80;;;8.70;99.90;;;;;;4928381;29;20051;-82
2023/03/28 13:12:24;;;;;;;3.83;1.58;;;8.70;99.90;;;;;;4926484;29;20089;-83
2023/03/28 13:14:58;;;;;;;3.72;1.73;;;8.70;99.90;;;;;;4933713;29;20043;-83
2023/03/28 13:17:26;;;;;;;3.92;1.92;;;8.70;99.90;;;;;;4917432;29;20364;-83
2023/03/28 13:20:11;;;;;;;5.32;1.60;;;11.60;99.90;;;;;;4932984;29;20175;-83
2023/03/28 13:22:57;;;;;;;4.75;1.92;;;9.80;99.90;;;;;;4933673;29;20094;-82
2023/03/28 13:25:31;;;;;;;4.63;1.80;;;9.90;99.90;;;;;;4950609;29;20117;-83
2023/03/28 13:27:56;;;;;;;3.80;1.80;;;10.10;99.90;;;;;;4942269;29;20130;-82
2023/03/28 13:30:25;;;;;;;3.90;1.42;;;9.10;99.90;;;;;;4917591;29;20508;-83